LFMNLFKB

Guest
Details From LFMN - Nice-Cote d'Azur
To LFKB - Bastia Poretta
Flight Number -
Tags decoded
Created
Modified
Stats Distance 123 nm / 227 km
Max Altitude 0 ft / 0 m
Waypoints 4
Social Downloads 0
Likes 0
Share

Download

Looking for another format? Having issues loading an existing format? Contact us
Advertisement - Login to hide

Notes

Requested: LFMN MILNO KB550 LFKB

Route

LFMN MILNO KB550 LFKB

ID Type Via Altitude (ft/m) Position (lat/lon) Dist (leg/tot) Name
O LFMN APT - 0 / 0 43.65840 / 7.21576 - / 0 nm Nice-Cote d'Azur
MILNO FIX - 0 / 0 42.89690 / 9.21194 98 / 98 nm
KB550 FIX - 0 / 0 42.62900 / 9.45169 19 / 117 nm
O LFKB APT - 0 / 0 42.55260 / 9.48375 4 / 122 nm Bastia Poretta

Altitude Profile

Advertisement - Login to hide

LFMN

Details ICAO LFMN (NCE)
Name Nice-Cote d'Azur
Region France
Timezone Unknown
Stats Elevation 12 ft / 4 m (AMSL)
Location 43.658400° 7.215760°
Runways 2
Magnetic Variation 2.759° E

METAR

LFMN 241630Z VRB03KT 9999 FEW100 27/22 Q1010 NOSIG

Decode

TAF

TAF LFMN 241400Z 2415/2521 10010KT CAVOK BECMG 2416/2418 VRB03KT

Decode

Departure Runways

ID Width Length Bearing (true/mag) Surface Threshold Overrun Markings Lighting
04L 148 ft / 45 m 8,992 ft / 2,741 m 44.86° / 42.10° ASPHALT 0 ft / 0 m 161 ft / 49 m PREC-APP CENTERLINE EDGE THRESHOLD REIL-OMNI
04R 148 ft / 45 m 9,706 ft / 2,958 m 44.86° / 42.10° ASPHALT 0 ft / 0 m 417 ft / 127 m PREC-APP CENTERLINE EDGE THRESHOLD REIL-OMNI
22L 148 ft / 45 m 9,706 ft / 2,958 m 224.88° / 222.12° ASPHALT 0 ft / 0 m 525 ft / 160 m PREC-APP CENTERLINE EDGE THRESHOLD REIL-OMNI
22R 148 ft / 45 m 8,992 ft / 2,741 m 224.88° / 222.12° ASPHALT 564 ft / 172 m 0 ft / 0 m PREC-APP CENTERLINE EDGE THRESHOLD REIL-OMNI

LFKB

Details ICAO LFKB (BIA)
Name Bastia Poretta
Region France
Timezone Europe/Paris (UTC+2.0)
Stats Elevation 24 ft / 7 m (AMSL)
Location 42.552600° 9.483750°
Runways 1
Magnetic Variation 3.198° E

METAR

LFKB 241630Z AUTO 36007KT 330V030 9999 FEW019 29/23 Q1010 NOSIG

Decode

TAF

TAF TAF LFKB 241400Z 2415/2515 04010KT 9999 SCT015 TX32/2512Z TN22/2503Z BECMG 2415/2418 CAVOK BECMG 2418/2421 24004KT BECMG 2507/2509 04010KT

Decode

Destination Runways

ID Width Length Bearing (true/mag) Surface Threshold Overrun Markings Lighting
16 148 ft / 45 m 8,273 ft / 2,522 m 162.83° / 159.64° ASPHALT 0 ft / 0 m 102 ft / 31 m APP CENTERLINE EDGE THRESHOLD TDZ REIL-OMNI
34 148 ft / 45 m 8,273 ft / 2,522 m 342.84° / 339.64° ASPHALT 0 ft / 0 m 0 ft / 0 m PREC-APP CENTERLINE EDGE THRESHOLD TDZ REIL-OMNI

Approach Navaids

Runway Type Ident Frequency Range Bearing (true/mag) Slope Elevation
34 GS BP 111.35 MHz 10 nm / 19 km 343.62° / 340.42 ° 3.00° 25 ft / 8 m (AMSL)
34 DME BP 111.35 MHz 18 nm / 33 km - - 69 ft / 21 m (AMSL)
34 LOC-ILS BP 111.35 MHz 18 nm / 33 km 342.81° / 339.61 ° - 25 ft / 8 m (AMSL)

Popular Alternatives